Adamsville, Rhode Island
Current Conditions -  °F | °C
As of 12:53 PM on Thursday 30 Oct 2014 (Local Time) from KUUU Reporting Station
Clear Clear  
Wind Chill: 59°   Ceiling: Unl
Heat Index: 59°   Visibility: 10mi
Dew Point: 38°   Wind: 5mph
Humidity: 46%   Direction: 320°NW
Pressure: 29.93"   Gusts: NA
Location:  41.55°N, 71.13°W
Report Text: KUUU 301653Z AUTO 32004KT 10SM CLR 15/03 A2993 RMK AO2 SLP133 T01500033
Loading
Personal Weather Stations






























Interactive Weather Map
Tropical Storm Tracking
New forecast layout! Learn more

10-Day Weather Forecast

Advertisements
Track Severe Weather on mobile